sensor_id;sensor_type;location;lat;lon;timestamp;pressure;altitude;pressure_sealevel;temperature;humidity
74680;BME280;63211;48.548;2.704;2022-10-13T00:00:39;101293.25;;;18.98;62.76
74680;BME280;63211;48.548;2.704;2022-10-13T00:03:06;101281.69;;;18.96;62.84
74680;BME280;63211;48.548;2.704;2022-10-13T00:05:34;101291.56;;;18.97;62.94
74680;BME280;63211;48.548;2.704;2022-10-13T00:08:00;101278.75;;;18.98;62.48
74680;BME280;63211;48.548;2.704;2022-10-13T00:10:27;101284.22;;;18.98;62.73
74680;BME280;63211;48.548;2.704;2022-10-13T00:12:55;101286.09;;;18.97;62.60
74680;BME280;63211;48.548;2.704;2022-10-13T00:15:22;101285.25;;;18.97;62.72
74680;BME280;63211;48.548;2.704;2022-10-13T00:17:50;101278.97;;;18.96;62.30
74680;BME280;63211;48.548;2.704;2022-10-13T00:20:17;101283.59;;;18.96;62.56
74680;BME280;63211;48.548;2.704;2022-10-13T00:22:43;101303.75;;;18.95;62.80
74680;BME280;63211;48.548;2.704;2022-10-13T00:25:10;101299.97;;;18.96;62.77
74680;BME280;63211;48.548;2.704;2022-10-13T00:27:37;101288.84;;;18.97;63.13
74680;BME280;63211;48.548;2.704;2022-10-13T00:30:06;101300.78;;;18.96;62.81
74680;BME280;63211;48.548;2.704;2022-10-13T00:32:32;101301.00;;;18.95;63.18
74680;BME280;63211;48.548;2.704;2022-10-13T00:34:59;101310.25;;;18.94;63.03
74680;BME280;63211;48.548;2.704;2022-10-13T00:37:25;101305.00;;;18.92;63.06
74680;BME280;63211;48.548;2.704;2022-10-13T00:39:52;101302.28;;;18.92;62.86
74680;BME280;63211;48.548;2.704;2022-10-13T00:42:19;101292.44;;;18.91;62.42
74680;BME280;63211;48.548;2.704;2022-10-13T00:45:06;101290.97;;;18.88;62.65
74680;BME280;63211;48.548;2.704;2022-10-13T00:47:43;101290.53;;;18.92;62.60
74680;BME280;63211;48.548;2.704;2022-10-13T00:50:12;101282.78;;;18.88;62.22
74680;BME280;63211;48.548;2.704;2022-10-13T00:52:41;101277.13;;;18.90;62.92
74680;BME280;63211;48.548;2.704;2022-10-13T00:55:10;101288.03;;;18.90;62.88
74680;BME280;63211;48.548;2.704;2022-10-13T00:57:39;101288.03;;;18.90;62.81
74680;BME280;63211;48.548;2.704;2022-10-13T01:00:10;101298.13;;;18.90;62.84
74680;BME280;63211;48.548;2.704;2022-10-13T01:02:37;101295.16;;;18.91;62.62
74680;BME280;63211;48.548;2.704;2022-10-13T01:05:06;101278.78;;;18.91;62.98
74680;BME280;63211;48.548;2.704;2022-10-13T01:07:33;101270.41;;;18.86;63.06
74680;BME280;63211;48.548;2.704;2022-10-13T01:10:01;101272.94;;;18.87;62.80
74680;BME280;63211;48.548;2.704;2022-10-13T01:12:37;101264.75;;;18.87;62.48
74680;BME280;63211;48.548;2.704;2022-10-13T01:15:12;101245.84;;;18.86;62.55
74680;BME280;63211;48.548;2.704;2022-10-13T01:17:48;101236.84;;;18.85;62.76
74680;BME280;63211;48.548;2.704;2022-10-13T01:26:47;101254.03;;;18.86;62.49
74680;BME280;63211;48.548;2.704;2022-10-13T01:29:31;101259.50;;;18.86;62.72
74680;BME280;63211;48.548;2.704;2022-10-13T01:32:07;101255.72;;;18.87;62.64
74680;BME280;63211;48.548;2.704;2022-10-13T01:34:39;101248.81;;;18.84;62.71
74680;BME280;63211;48.548;2.704;2022-10-13T01:37:11;101238.72;;;18.85;62.91
74680;BME280;63211;48.548;2.704;2022-10-13T01:39:43;101236.84;;;18.85;62.52
74680;BME280;63211;48.548;2.704;2022-10-13T01:42:15;101237.47;;;18.81;62.71
74680;BME280;63211;48.548;2.704;2022-10-13T01:44:47;101249.84;;;18.83;62.90
74680;BME280;63211;48.548;2.704;2022-10-13T01:47:18;101229.06;;;18.82;62.71
74680;BME280;63211;48.548;2.704;2022-10-13T01:49:46;101220.06;;;18.82;62.77
74680;BME280;63211;48.548;2.704;2022-10-13T01:52:17;101235.38;;;18.83;62.78
74680;BME280;63211;48.548;2.704;2022-10-13T01:54:47;101236.22;;;18.83;62.02
74680;BME280;63211;48.548;2.704;2022-10-13T01:57:29;101232.84;;;18.81;62.59
74680;BME280;63211;48.548;2.704;2022-10-13T01:59:57;101241.66;;;18.83;62.50
74680;BME280;63211;48.548;2.704;2022-10-13T02:02:29;101247.75;;;18.85;62.38
74680;BME280;63211;48.548;2.704;2022-10-13T02:05:03;101238.72;;;18.85;62.42
74680;BME280;63211;48.548;2.704;2022-10-13T02:07:37;101236.22;;;18.83;62.56
74680;BME280;63211;48.548;2.704;2022-10-13T02:10:12;101235.38;;;18.83;62.94
74680;BME280;63211;48.548;2.704;2022-10-13T02:12:46;101235.38;;;18.83;62.67
74680;BME280;63211;48.548;2.704;2022-10-13T02:15:17;101233.47;;;18.83;62.66
74680;BME280;63211;48.548;2.704;2022-10-13T02:17:46;101231.81;;;18.82;62.77
74680;BME280;63211;48.548;2.704;2022-10-13T02:20:14;101215.88;;;18.79;62.64
74680;BME280;63211;48.548;2.704;2022-10-13T02:22:44;101214.81;;;18.80;62.47
74680;BME280;63211;48.548;2.704;2022-10-13T02:25:12;101204.94;;;18.79;62.28
74680;BME280;63211;48.548;2.704;2022-10-13T02:27:39;101212.91;;;18.81;62.22
74680;BME280;63211;48.548;2.704;2022-10-13T02:30:07;101211.47;;;18.78;62.06
74680;BME280;63211;48.548;2.704;2022-10-13T02:32:33;101212.91;;;18.81;62.21
74680;BME280;63211;48.548;2.704;2022-10-13T02:35:01;101194.44;;;18.83;62.16
74680;BME280;63211;48.548;2.704;2022-10-13T02:37:28;101208.09;;;18.83;62.21
74680;BME280;63211;48.548;2.704;2022-10-13T02:39:55;101215.44;;;18.82;62.27
74680;BME280;63211;48.548;2.704;2022-10-13T02:42:21;101215.44;;;18.82;62.38
74680;BME280;63211;48.548;2.704;2022-10-13T02:44:48;101202.22;;;18.79;62.55
74680;BME280;63211;48.548;2.704;2022-10-13T02:47:15;101215.44;;;18.82;62.59
74680;BME280;63211;48.548;2.704;2022-10-13T02:49:41;101202.84;;;18.81;62.40
74680;BME280;63211;48.548;2.704;2022-10-13T02:52:09;101200.13;;;18.81;62.48
74680;BME280;63211;48.548;2.704;2022-10-13T02:54:36;101194.03;;;18.79;62.24
74680;BME280;63211;48.548;2.704;2022-10-13T02:57:02;101186.06;;;18.78;62.34
74680;BME280;63211;48.548;2.704;2022-10-13T02:59:29;101186.91;;;18.78;62.19
74680;BME280;63211;48.548;2.704;2022-10-13T03:01:55;101177.88;;;18.78;62.05
74680;BME280;63211;48.548;2.704;2022-10-13T03:04:22;101182.06;;;18.80;62.29
74680;BME280;63211;48.548;2.704;2022-10-13T03:06:49;101174.50;;;18.82;62.21
74680;BME280;63211;48.548;2.704;2022-10-13T03:09:17;101167.16;;;18.83;62.08
74680;BME280;63211;48.548;2.704;2022-10-13T03:11:43;101166.34;;;18.82;61.75
74680;BME280;63211;48.548;2.704;2022-10-13T03:14:10;101163.81;;;18.81;62.37
74680;BME280;63211;48.548;2.704;2022-10-13T03:16:37;101166.53;;;18.81;62.32
74680;BME280;63211;48.548;2.704;2022-10-13T03:19:04;101164.66;;;18.81;62.51
74680;BME280;63211;48.548;2.704;2022-10-13T03:21:30;101174.94;;;18.79;62.04
74680;BME280;63211;48.548;2.704;2022-10-13T03:23:57;101174.94;;;18.79;62.13
74680;BME280;63211;48.548;2.704;2022-10-13T03:26:25;101165.09;;;18.78;62.16
74680;BME280;63211;48.548;2.704;2022-10-13T03:28:51;101175.38;;;18.76;61.90
74680;BME280;63211;48.548;2.704;2022-10-13T03:31:18;101170.75;;;18.77;62.28
74680;BME280;63211;48.548;2.704;2022-10-13T03:33:45;101162.38;;;18.72;62.21
74680;BME280;63211;48.548;2.704;2022-10-13T03:36:12;101171.38;;;18.79;61.92
74680;BME280;63211;48.548;2.704;2022-10-13T03:38:39;101173.06;;;18.80;62.14
74680;BME280;63211;48.548;2.704;2022-10-13T03:41:06;101163.81;;;18.81;62.32
74680;BME280;63211;48.548;2.704;2022-10-13T03:43:35;101156.47;;;18.81;61.89
74680;BME280;63211;48.548;2.704;2022-10-13T03:46:03;101156.69;;;18.80;62.37
74680;BME280;63211;48.548;2.704;2022-10-13T03:48:31;101145.78;;;18.80;62.09
74680;BME280;63211;48.548;2.704;2022-10-13T03:50:58;101153.13;;;18.79;62.55
74680;BME280;63211;48.548;2.704;2022-10-13T03:53:25;101152.50;;;18.77;62.45
74680;BME280;63211;48.548;2.704;2022-10-13T03:55:53;101138.25;;;18.75;62.31
74680;BME280;63211;48.548;2.704;2022-10-13T03:58:21;101147.03;;;18.77;62.27
74680;BME280;63211;48.548;2.704;2022-10-13T04:00:50;101148.09;;;18.76;62.08
74680;BME280;63211;48.548;2.704;2022-10-13T04:03:17;101149.78;;;18.77;62.13
74680;BME280;63211;48.548;2.704;2022-10-13T04:05:44;101157.34;;;18.75;62.04
74680;BME280;63211;48.548;2.704;2022-10-13T04:08:11;101166.34;;;18.76;62.00
74680;BME280;63211;48.548;2.704;2022-10-13T04:10:38;101166.13;;;18.77;62.05
74680;BME280;63211;48.548;2.704;2022-10-13T04:13:05;101159.63;;;18.78;62.23
74680;BME280;63211;48.548;2.704;2022-10-13T04:15:35;101147.03;;;18.77;62.22
74680;BME280;63211;48.548;2.704;2022-10-13T04:18:03;101136.75;;;18.79;62.05
74680;BME280;63211;48.548;2.704;2022-10-13T04:20:30;101143.03;;;18.80;62.05
74680;BME280;63211;48.548;2.704;2022-10-13T04:22:57;101133.19;;;18.79;61.92
74680;BME280;63211;48.548;2.704;2022-10-13T04:25:23;101142.22;;;18.79;62.11
74680;BME280;63211;48.548;2.704;2022-10-13T04:27:50;101146.22;;;18.77;62.29
74680;BME280;63211;48.548;2.704;2022-10-13T04:30:17;101146.22;;;18.77;62.45
74680;BME280;63211;48.548;2.704;2022-10-13T04:32:43;101149.78;;;18.77;62.08
74680;BME280;63211;48.548;2.704;2022-10-13T04:35:11;101155.44;;;18.76;62.28
74680;BME280;63211;48.548;2.704;2022-10-13T04:37:38;101152.94;;;18.74;61.87
74680;BME280;63211;48.548;2.704;2022-10-13T04:40:05;101154.81;;;18.74;61.99
74680;BME280;63211;48.548;2.704;2022-10-13T04:42:33;101145.59;;;18.75;62.23
74680;BME280;63211;48.548;2.704;2022-10-13T04:44:59;101128.16;;;18.76;61.81
74680;BME280;63211;48.548;2.704;2022-10-13T04:47:26;101122.72;;;18.76;62.01
74680;BME280;63211;48.548;2.704;2022-10-13T04:49:52;101133.63;;;18.76;62.11
74680;BME280;63211;48.548;2.704;2022-10-13T04:52:20;101133.41;;;18.77;62.28
74680;BME280;63211;48.548;2.704;2022-10-13T04:54:47;101131.28;;;18.79;62.12
74680;BME280;63211;48.548;2.704;2022-10-13T04:57:13;101136.75;;;18.79;61.94
74680;BME280;63211;48.548;2.704;2022-10-13T04:59:40;101130.69;;;18.77;62.10
74680;BME280;63211;48.548;2.704;2022-10-13T05:02:07;101118.97;;;18.70;62.18
74680;BME280;63211;48.548;2.704;2022-10-13T05:04:34;101129.22;;;18.75;62.21
74680;BME280;63211;48.548;2.704;2022-10-13T05:07:01;101140.13;;;18.75;62.09
74680;BME280;63211;48.548;2.704;2022-10-13T05:09:30;101145.78;;;18.73;62.17
74680;BME280;63211;48.548;2.704;2022-10-13T05:11:56;101143.91;;;18.74;62.24
74680;BME280;63211;48.548;2.704;2022-10-13T05:14:23;101150.19;;;18.74;61.81
74680;BME280;63211;48.548;2.704;2022-10-13T05:16:50;101148.31;;;18.75;61.92
74680;BME280;63211;48.548;2.704;2022-10-13T05:19:16;101139.28;;;18.74;62.09
74680;BME280;63211;48.548;2.704;2022-10-13T05:21:43;101130.06;;;18.75;61.86
74680;BME280;63211;48.548;2.704;2022-10-13T05:24:09;101128.38;;;18.74;62.13
74680;BME280;63211;48.548;2.704;2022-10-13T05:26:39;101119.13;;;18.75;61.76
74680;BME280;63211;48.548;2.704;2022-10-13T05:29:05;101126.50;;;18.75;61.94
74680;BME280;63211;48.548;2.704;2022-10-13T05:31:33;101117.47;;;18.74;62.25
74680;BME280;63211;48.548;2.704;2022-10-13T05:34:00;101107.41;;;18.75;62.19
74680;BME280;63211;48.548;2.704;2022-10-13T05:36:29;101105.72;;;18.74;62.09
74680;BME280;63211;48.548;2.704;2022-10-13T05:38:57;101104.50;;;18.70;62.39
74680;BME280;63211;48.548;2.704;2022-10-13T05:41:26;101113.28;;;18.72;62.13
74680;BME280;63211;48.548;2.704;2022-10-13T05:43:56;101122.72;;;18.76;62.91
74680;BME280;63211;48.548;2.704;2022-10-13T05:46:23;101131.53;;;18.71;62.98
74680;BME280;63211;48.548;2.704;2022-10-13T05:48:50;101119.34;;;18.74;63.00
74680;BME280;63211;48.548;2.704;2022-10-13T05:51:21;101125.69;;;18.68;62.67
74680;BME280;63211;48.548;2.704;2022-10-13T05:53:52;101129.44;;;18.73;63.31
74680;BME280;63211;48.548;2.704;2022-10-13T05:56:21;101127.72;;;18.85;63.34
74680;BME280;63211;48.548;2.704;2022-10-13T05:58:51;101129.41;;;18.80;63.19
74680;BME280;63211;48.548;2.704;2022-10-13T06:01:23;101123.34;;;18.71;63.36
74680;BME280;63211;48.548;2.704;2022-10-13T06:03:52;101109.13;;;18.69;63.27
74680;BME280;63211;48.548;2.704;2022-10-13T06:06:21;101104.50;;;18.70;62.92
74680;BME280;63211;48.548;2.704;2022-10-13T06:08:48;101091.09;;;18.68;63.27
74680;BME280;63211;48.548;2.704;2022-10-13T06:11:15;101087.53;;;18.68;62.82
74680;BME280;63211;48.548;2.704;2022-10-13T06:13:42;101075.94;;;18.72;63.21
74680;BME280;63211;48.548;2.704;2022-10-13T06:16:08;101088.69;;;18.85;62.98
74680;BME280;63211;48.548;2.704;2022-10-13T06:18:37;101090.97;;;18.88;62.77
74680;BME280;63211;48.548;2.704;2022-10-13T06:21:04;101090.13;;;18.87;62.75
74680;BME280;63211;48.548;2.704;2022-10-13T06:23:30;101100.38;;;18.92;62.66
74680;BME280;63211;48.548;2.704;2022-10-13T06:25:57;101103.78;;;18.87;62.43
74680;BME280;63211;48.548;2.704;2022-10-13T06:28:23;101099.16;;;18.88;62.33
74680;BME280;63211;48.548;2.704;2022-10-13T06:30:50;101081.94;;;18.87;62.08
74680;BME280;63211;48.548;2.704;2022-10-13T06:33:21;101088.84;;;18.90;62.20
74680;BME280;63211;48.548;2.704;2022-10-13T06:35:49;101085.06;;;18.91;62.35
74680;BME280;63211;48.548;2.704;2022-10-13T06:38:16;101093.41;;;18.96;62.03
74680;BME280;63211;48.548;2.704;2022-10-13T06:40:43;101093.19;;;18.98;62.18
74680;BME280;63211;48.548;2.704;2022-10-13T06:43:10;101111.00;;;19.07;61.96
74680;BME280;63211;48.548;2.704;2022-10-13T06:45:36;101114.13;;;19.10;61.89
74680;BME280;63211;48.548;2.704;2022-10-13T06:48:03;101119.94;;;19.14;61.94
74680;BME280;63211;48.548;2.704;2022-10-13T06:50:30;101123.53;;;19.14;61.86
74680;BME280;63211;48.548;2.704;2022-10-13T06:52:59;101125.81;;;19.17;61.84
74680;BME280;63211;48.548;2.704;2022-10-13T06:55:25;101117.41;;;19.19;61.56
74680;BME280;63211;48.548;2.704;2022-10-13T06:57:52;101110.44;;;19.23;61.71
74680;BME280;63211;48.548;2.704;2022-10-13T07:00:19;101114.84;;;19.24;61.81
74680;BME280;63211;48.548;2.704;2022-10-13T07:02:48;101103.50;;;19.27;61.75
74680;BME280;63211;48.548;2.704;2022-10-13T07:05:15;101105.16;;;19.28;61.55
74680;BME280;63211;48.548;2.704;2022-10-13T07:07:42;101104.72;;;19.31;61.33
74680;BME280;63211;48.548;2.704;2022-10-13T07:10:10;101092.28;;;19.35;61.30
74680;BME280;63211;48.548;2.704;2022-10-13T07:12:37;101105.28;;;19.40;60.91
74680;BME280;63211;48.548;2.704;2022-10-13T07:15:04;101116.41;;;19.38;61.36
74680;BME280;63211;48.548;2.704;2022-10-13T07:17:30;101131.75;;;19.39;61.30
74680;BME280;63211;48.548;2.704;2022-10-13T07:19:57;101123.56;;;19.39;60.98
74680;BME280;63211;48.548;2.704;2022-10-13T07:22:24;101120.38;;;19.42;61.11
74680;BME280;63211;48.548;2.704;2022-10-13T07:24:51;101110.28;;;19.43;60.90
74680;BME280;63211;48.548;2.704;2022-10-13T07:27:19;101100.38;;;19.48;60.96
74680;BME280;63211;48.548;2.704;2022-10-13T07:29:46;101105.44;;;19.51;60.51
74680;BME280;63211;48.548;2.704;2022-10-13T07:32:13;101107.13;;;19.52;60.86
74680;BME280;63211;48.548;2.704;2022-10-13T07:34:39;101112.31;;;19.54;60.72
74680;BME280;63211;48.548;2.704;2022-10-13T07:37:07;101113.41;;;19.53;60.71
74680;BME280;63211;48.548;2.704;2022-10-13T07:39:34;101113.78;;;19.56;60.61
74680;BME280;63211;48.548;2.704;2022-10-13T07:42:00;101116.28;;;19.58;60.72
74680;BME280;63211;48.548;2.704;2022-10-13T07:44:28;101120.47;;;19.61;60.24
74680;BME280;63211;48.548;2.704;2022-10-13T07:46:55;101119.19;;;19.63;60.21
74680;BME280;63211;48.548;2.704;2022-10-13T07:49:22;101123.38;;;19.66;60.11
74680;BME280;63211;48.548;2.704;2022-10-13T07:51:48;101124.00;;;19.68;60.07
74680;BME280;63211;48.548;2.704;2022-10-13T07:54:15;101126.72;;;19.68;59.80
74680;BME280;63211;48.548;2.704;2022-10-13T07:56:43;101125.03;;;19.67;60.03
74680;BME280;63211;48.548;2.704;2022-10-13T07:59:09;101125.94;;;19.61;60.23
74680;BME280;63211;48.548;2.704;2022-10-13T08:01:38;101126.59;;;19.56;60.56
74680;BME280;63211;48.548;2.704;2022-10-13T08:04:05;101116.38;;;19.45;60.41
74680;BME280;63211;48.548;2.704;2022-10-13T08:06:32;101121.19;;;19.49;60.60
74680;BME280;63211;48.548;2.704;2022-10-13T08:08:58;101128.75;;;19.47;60.59
74680;BME280;63211;48.548;2.704;2022-10-13T08:11:26;101138.56;;;19.55;60.25
74680;BME280;63211;48.548;2.704;2022-10-13T08:13:52;101134.34;;;19.59;60.40
74680;BME280;63211;48.548;2.704;2022-10-13T08:16:20;101133.91;;;19.62;60.02
74680;BME280;63211;48.548;2.704;2022-10-13T08:18:48;101145.06;;;19.61;60.49
74680;BME280;63211;48.548;2.704;2022-10-13T08:21:16;101153.25;;;19.61;60.42
74680;BME280;63211;48.548;2.704;2022-10-13T08:23:43;101154.91;;;19.62;60.37
74680;BME280;63211;48.548;2.704;2022-10-13T08:26:15;101147.75;;;19.67;60.16
74680;BME280;63211;48.548;2.704;2022-10-13T08:28:43;101154.88;;;19.68;60.04
74680;BME280;63211;48.548;2.704;2022-10-13T08:31:10;101165.41;;;19.65;60.02
74680;BME280;63211;48.548;2.704;2022-10-13T08:33:36;101165.63;;;19.63;60.18
74680;BME280;63211;48.548;2.704;2022-10-13T08:36:05;101173.38;;;19.66;60.07
74680;BME280;63211;48.548;2.704;2022-10-13T08:38:32;101174.00;;;19.68;59.83
74680;BME280;63211;48.548;2.704;2022-10-13T08:40:59;101176.50;;;19.70;60.02
74680;BME280;63211;48.548;2.704;2022-10-13T08:43:26;101170.81;;;19.71;60.04
74680;BME280;63211;48.548;2.704;2022-10-13T08:45:57;101166.19;;;19.72;59.77
74680;BME280;63211;48.548;2.704;2022-10-13T08:48:26;101157.16;;;19.71;59.80
74680;BME280;63211;48.548;2.704;2022-10-13T08:50:58;101158.22;;;19.70;60.01
74680;BME280;63211;48.548;2.704;2022-10-13T08:53:29;101156.47;;;19.76;59.70
74680;BME280;63211;48.548;2.704;2022-10-13T08:55:58;101155.41;;;19.77;59.91
74680;BME280;63211;48.548;2.704;2022-10-13T08:58:27;101163.16;;;19.80;59.67
74680;BME280;63211;48.548;2.704;2022-10-13T09:01:05;101172.38;;;19.85;59.63
74680;BME280;63211;48.548;2.704;2022-10-13T09:03:44;101162.88;;;19.88;59.31
74680;BME280;63211;48.548;2.704;2022-10-13T09:06:14;101162.88;;;19.88;59.46
74680;BME280;63211;48.548;2.704;2022-10-13T09:08:48;101164.56;;;19.89;59.30
74680;BME280;63211;48.548;2.704;2022-10-13T09:11:17;101167.75;;;19.86;59.45
74680;BME280;63211;48.548;2.704;2022-10-13T09:13:44;101168.34;;;19.88;59.55
74680;BME280;63211;48.548;2.704;2022-10-13T09:16:11;101155.97;;;19.85;59.43
74680;BME280;63211;48.548;2.704;2022-10-13T09:18:38;101161.66;;;19.84;59.32
74680;BME280;63211;48.548;2.704;2022-10-13T09:21:10;101160.22;;;19.81;59.43
74680;BME280;63211;48.548;2.704;2022-10-13T09:23:41;101156.81;;;19.86;59.54
74680;BME280;63211;48.548;2.704;2022-10-13T09:26:18;101160.16;;;19.88;59.33
74680;BME280;63211;48.548;2.704;2022-10-13T09:28:45;101162.09;;;19.81;59.66
74680;BME280;63211;48.548;2.704;2022-10-13T09:31:16;101156.31;;;19.71;59.89
74680;BME280;63211;48.548;2.704;2022-10-13T09:33:43;101168.72;;;19.73;60.00
74680;BME280;63211;48.548;2.704;2022-10-13T09:36:12;101166.41;;;19.70;60.03
74680;BME280;63211;48.548;2.704;2022-10-13T09:38:42;101168.94;;;19.72;60.09
74680;BME280;63211;48.548;2.704;2022-10-13T09:41:16;101162.41;;;19.73;59.58
74680;BME280;63211;48.548;2.704;2022-10-13T09:43:58;101155.28;;;19.72;59.83
74680;BME280;63211;48.548;2.704;2022-10-13T09:46:28;101163.47;;;19.72;59.86
74680;BME280;63211;48.548;2.704;2022-10-13T09:48:59;101159.91;;;19.71;59.93
74680;BME280;63211;48.548;2.704;2022-10-13T09:51:33;101156.94;;;19.73;59.67
74680;BME280;63211;48.548;2.704;2022-10-13T09:54:00;101153.59;;;19.71;59.69
74680;BME280;63211;48.548;2.704;2022-10-13T09:56:35;101156.94;;;19.73;59.94
74680;BME280;63211;48.548;2.704;2022-10-13T09:59:13;101143.88;;;19.75;59.29
74680;BME280;63211;48.548;2.704;2022-10-13T10:01:43;101149.59;;;19.73;59.76
74680;BME280;63211;48.548;2.704;2022-10-13T10:04:14;101147.28;;;19.70;59.68
74680;BME280;63211;48.548;2.704;2022-10-13T10:06:42;101148.00;;;19.84;58.97
74680;BME280;63211;48.548;2.704;2022-10-13T10:09:31;101143.38;;;19.84;59.39
74680;BME280;63211;48.548;2.704;2022-10-13T10:12:02;101152.81;;;19.88;59.22
74680;BME280;63211;48.548;2.704;2022-10-13T10:14:31;101147.34;;;19.88;58.81
74680;BME280;63211;48.548;2.704;2022-10-13T10:17:03;101145.22;;;19.90;59.00
74680;BME280;63211;48.548;2.704;2022-10-13T10:19:44;101156.03;;;19.79;59.34
74680;BME280;63211;48.548;2.704;2022-10-13T10:22:19;101149.66;;;19.85;59.11
74680;BME280;63211;48.548;2.704;2022-10-13T10:24:54;101145.44;;;19.89;59.09
74680;BME280;63211;48.548;2.704;2022-10-13T10:27:27;101138.31;;;19.88;58.66
74680;BME280;63211;48.548;2.704;2022-10-13T10:29:59;101145.66;;;19.87;59.00
74680;BME280;63211;48.548;2.704;2022-10-13T10:32:32;101140.59;;;19.91;58.39
74680;BME280;63211;48.548;2.704;2022-10-13T10:35:10;101150.91;;;19.89;58.80
74680;BME280;63211;48.548;2.704;2022-10-13T10:37:51;101133.72;;;19.82;58.47
74680;BME280;63211;48.548;2.704;2022-10-13T10:40:30;101149.22;;;19.88;58.39
74680;BME280;63211;48.548;2.704;2022-10-13T10:43:28;101139.53;;;19.92;58.78
74680;BME280;63211;48.548;2.704;2022-10-13T10:45:59;101130.88;;;19.95;59.10
74680;BME280;63211;48.548;2.704;2022-10-13T10:48:32;101125.16;;;19.97;58.68
74680;BME280;63211;48.548;2.704;2022-10-13T10:51:01;101128.72;;;19.97;58.77
74680;BME280;63211;48.548;2.704;2022-10-13T10:53:34;101120.69;;;20.02;58.53
74680;BME280;63211;48.548;2.704;2022-10-13T10:56:07;101120.31;;;19.99;58.70
74680;BME280;63211;48.548;2.704;2022-10-13T10:58:43;101110.66;;;19.96;58.93
74680;BME280;63211;48.548;2.704;2022-10-13T11:01:26;101099.72;;;19.96;59.24
74680;BME280;63211;48.548;2.704;2022-10-13T11:03:57;101110.91;;;19.95;59.08
74680;BME280;63211;48.548;2.704;2022-10-13T11:06:34;101104.63;;;19.94;59.10
74680;BME280;63211;48.548;2.704;2022-10-13T11:09:02;101102.94;;;19.93;59.30
74680;BME280;63211;48.548;2.704;2022-10-13T11:11:38;101100.56;;;19.97;59.42
74680;BME280;63211;48.548;2.704;2022-10-13T11:14:24;101104.34;;;19.96;59.01
74680;BME280;63211;48.548;2.704;2022-10-13T11:17:08;101105.50;;;19.88;59.35
74680;BME280;63211;48.548;2.704;2022-10-13T11:19:37;101100.03;;;19.88;59.52
74680;BME280;63211;48.548;2.704;2022-10-13T11:22:18;101097.00;;;19.96;59.42
74680;BME280;63211;48.548;2.704;2022-10-13T11:24:47;101095.44;;;20.07;59.16
74680;BME280;63211;48.548;2.704;2022-10-13T11:27:23;101093.13;;;20.04;59.05
74680;BME280;63211;48.548;2.704;2022-10-13T11:29:54;101090.19;;;20.05;59.09
74680;BME280;63211;48.548;2.704;2022-10-13T11:32:45;101078.88;;;20.02;59.26
74680;BME280;63211;48.548;2.704;2022-10-13T11:35:26;101084.41;;;19.95;59.41
74680;BME280;63211;48.548;2.704;2022-10-13T11:38:15;101079.19;;;19.94;59.57
74680;BME280;63211;48.548;2.704;2022-10-13T11:41:04;101077.03;;;19.96;59.34
74680;BME280;63211;48.548;2.704;2022-10-13T11:43:41;101068.75;;;20.02;59.12
74680;BME280;63211;48.548;2.704;2022-10-13T11:46:23;101065.59;;;20.05;58.98
74680;BME280;63211;48.548;2.704;2022-10-13T11:49:17;101068.09;;;20.07;59.14
74680;BME280;63211;48.548;2.704;2022-10-13T11:52:05;101069.31;;;20.11;59.14
74680;BME280;63211;48.548;2.704;2022-10-13T11:54:39;101070.38;;;20.10;59.35
74680;BME280;63211;48.548;2.704;2022-10-13T11:57:20;101071.44;;;20.09;59.05
74680;BME280;63211;48.548;2.704;2022-10-13T11:59:48;101064.28;;;20.08;59.17
74680;BME280;63211;48.548;2.704;2022-10-13T12:02:21;101067.19;;;20.13;58.91
74680;BME280;63211;48.548;2.704;2022-10-13T12:04:59;101066.97;;;20.14;58.93
74680;BME280;63211;48.548;2.704;2022-10-13T12:07:32;101066.13;;;20.14;58.94
74680;BME280;63211;48.548;2.704;2022-10-13T12:10:00;101062.31;;;20.15;59.13
74680;BME280;63211;48.548;2.704;2022-10-13T12:12:28;101048.66;;;20.15;59.01
74680;BME280;63211;48.548;2.704;2022-10-13T12:14:55;101054.03;;;20.21;59.01
74680;BME280;63211;48.548;2.704;2022-10-13T12:17:29;101038.31;;;20.17;59.14
74680;BME280;63211;48.548;2.704;2022-10-13T12:19:58;101049.94;;;20.12;59.17
74680;BME280;63211;48.548;2.704;2022-10-13T12:22:25;101028.53;;;20.09;58.86
74680;BME280;63211;48.548;2.704;2022-10-13T12:24:56;101036.06;;;20.14;58.88
74680;BME280;63211;48.548;2.704;2022-10-13T12:27:24;101034.16;;;20.14;58.93
74680;BME280;63211;48.548;2.704;2022-10-13T12:29:51;101022.00;;;20.10;58.91
74680;BME280;63211;48.548;2.704;2022-10-13T12:32:20;101029.97;;;20.12;59.00
74680;BME280;63211;48.548;2.704;2022-10-13T12:34:48;101026.41;;;20.11;59.05
74680;BME280;63211;48.548;2.704;2022-10-13T12:37:24;101029.75;;;20.13;59.20
74680;BME280;63211;48.548;2.704;2022-10-13T12:39:52;101034.72;;;20.16;58.87
74680;BME280;63211;48.548;2.704;2022-10-13T12:42:28;101041.75;;;20.12;58.88
74680;BME280;63211;48.548;2.704;2022-10-13T12:44:57;101043.03;;;20.10;59.08
74680;BME280;63211;48.548;2.704;2022-10-13T12:47:36;101032.72;;;20.12;59.24
74680;BME280;63211;48.548;2.704;2022-10-13T12:50:21;101026.63;;;20.10;59.29
74680;BME280;63211;48.548;2.704;2022-10-13T12:52:49;101028.38;;;20.04;59.43
74680;BME280;63211;48.548;2.704;2022-10-13T12:55:19;101035.50;;;20.05;59.63
74680;BME280;63211;48.548;2.704;2022-10-13T12:57:48;101019.50;;;20.09;59.46
74680;BME280;63211;48.548;2.704;2022-10-13T13:00:22;101025.88;;;20.03;59.37
74680;BME280;63211;48.548;2.704;2022-10-13T13:02:50;101032.16;;;20.03;59.56
74680;BME280;63211;48.548;2.704;2022-10-13T13:05:34;101019.19;;;19.99;59.32
74680;BME280;63211;48.548;2.704;2022-10-13T13:08:03;101020.03;;;19.99;59.50
74680;BME280;63211;48.548;2.704;2022-10-13T13:10:30;101017.28;;;19.99;59.69